PWSweather.com
Personal Weather Stations
Station Observations
METEOC500
Santo Antonio, FunchalPT 2020

Santo AntonioFunchalPT 2020

Lat: 32.678227, Lon: -16.945054

Elevation: 1669.94751

Station Type: WH Series

Latest ConditionsUpdated 7:47:38 AM GMT Thursday, Jul 18, 2019
Currently Today's Max Today's Min Today's Average
Temperature 59.9°F15.5°C 61.9°F16.6°C 58.1°F14.5°C 59.4°F15.2°C
Dew Point 52.7°F11.5°C 57.9°F14.4°C 52.2°F11.2°C 54.4°F12.4°C
Winds 6.5 mph N10.5 kmh N 8.1 mph -13.0 kmh - - 5.9 mph 9.5 kmh
Wind Gusts 10.1 mph16.3 kmh 12.5 mph20.1 kmh - -
Humidity 77% 88% 77% 83%
Pressure 30.21 in1023.0 mb 30.27 in1025.1 mb 30.20 in1022.7 mb -
Hour Temp Dew Point Humidity Winds Wind Gusts Pressure Precip Precip Rate Daily Precip Total
07:47 AM 59.9°F15.5°C 52.7°F11.5°C 77% 6.5 mph N10.5 kmh N 10.1 mph16.3 kmh 30.21 in1023.0 mb 0.00 in0.0 mm 0.00 in0.0 mm 0.00 in0.0 mm
07:32 AM 59.0°F15.0°C 52.2°F11.2°C 78% 6.5 mph N10.5 kmh N 10.1 mph16.3 kmh 30.21 in1023.0 mb 0.00 in0.0 mm 0.00 in0.0 mm 0.00 in0.0 mm
07:17 AM 58.5°F14.7°C 52.7°F11.5°C 81% 6.3 mph NNW10.1 kmh NNW 10.1 mph16.3 kmh 30.21 in1023.0 mb 0.00 in0.0 mm 0.00 in0.0 mm 0.00 in0.0 mm
07:02 AM 58.5°F14.7°C 52.7°F11.5°C 81% 6.3 mph NNW10.1 kmh NNW 10.1 mph16.3 kmh 30.21 in1023.0 mb 0.00 in0.0 mm 0.00 in0.0 mm 0.00 in0.0 mm
06:47 AM 58.3°F14.6°C 52.9°F11.6°C 82% 7.2 mph NNW11.6 kmh NNW 12.5 mph20.1 kmh 30.21 in1023.0 mb 0.00 in0.0 mm 0.00 in0.0 mm 0.00 in0.0 mm
06:32 AM 58.1°F14.5°C 52.3°F11.3°C 81% 5.6 mph NNW9.0 kmh NNW 12.5 mph20.1 kmh 30.20 in1022.7 mb 0.00 in0.0 mm 0.00 in0.0 mm 0.00 in0.0 mm
06:17 AM 58.3°F14.6°C 52.9°F11.6°C 82% 7.2 mph NNW11.6 kmh NNW 10.1 mph16.3 kmh 30.20 in1022.7 mb 0.00 in0.0 mm 0.00 in0.0 mm 0.00 in0.0 mm
06:02 AM 58.3°F14.6°C 53.1°F11.7°C 83% 4.9 mph NNW7.9 kmh NNW 10.1 mph16.3 kmh 30.20 in1022.7 mb 0.00 in0.0 mm 0.00 in0.0 mm 0.00 in0.0 mm
05:47 AM 58.5°F14.7°C 53.2°F11.8°C 83% 4.0 mph NNW6.4 kmh NNW 7.6 mph12.2 kmh 30.20 in1022.7 mb 0.00 in0.0 mm 0.00 in0.0 mm 0.00 in0.0 mm
05:32 AM 58.6°F14.8°C 53.4°F11.9°C 83% 4.9 mph N7.9 kmh N 10.1 mph16.3 kmh 30.21 in1023.0 mb 0.00 in0.0 mm 0.00 in0.0 mm 0.00 in0.0 mm
05:17 AM 58.8°F14.9°C 54.0°F12.2°C 84% 3.8 mph NNW6.1 kmh NNW 10.1 mph16.3 kmh 30.20 in1022.7 mb 0.00 in0.0 mm 0.00 in0.0 mm 0.00 in0.0 mm
05:02 AM 59.2°F15.1°C 54.0°F12.2°C 83% 4.7 mph N7.6 kmh N 10.1 mph16.3 kmh 30.20 in1022.7 mb 0.00 in0.0 mm 0.00 in0.0 mm 0.00 in0.0 mm
04:47 AM 59.2°F15.1°C 54.0°F12.2°C 83% 6.9 mph N11.1 kmh N 10.1 mph16.3 kmh 30.20 in1022.7 mb 0.00 in0.0 mm 0.00 in0.0 mm 0.00 in0.0 mm
04:32 AM 59.2°F15.1°C 54.0°F12.2°C 83% 6.3 mph NNW10.1 kmh NNW 10.1 mph16.3 kmh 30.20 in1022.7 mb 0.00 in0.0 mm 0.00 in0.0 mm 0.00 in0.0 mm
04:17 AM 59.4°F15.2°C 54.1°F12.3°C 83% 5.6 mph NNW9.0 kmh NNW 12.5 mph20.1 kmh 30.20 in1022.7 mb 0.00 in0.0 mm 0.00 in0.0 mm 0.00 in0.0 mm
04:02 AM 59.5°F15.3°C 54.3°F12.4°C 83% 7.6 mph NW12.2 kmh NW 12.5 mph20.1 kmh 30.20 in1022.7 mb 0.00 in0.0 mm 0.00 in0.0 mm 0.00 in0.0 mm
03:47 AM 59.5°F15.3°C 54.7°F12.6°C 84% 7.8 mph NNW12.6 kmh NNW 12.5 mph20.1 kmh 30.20 in1022.7 mb 0.00 in0.0 mm 0.00 in0.0 mm 0.00 in0.0 mm
03:32 AM 59.5°F15.3°C 54.7°F12.6°C 84% 7.8 mph NW12.6 kmh NW 12.5 mph20.1 kmh 30.21 in1023.0 mb 0.00 in0.0 mm 0.00 in0.0 mm 0.00 in0.0 mm
03:17 AM 59.7°F15.4°C 54.9°F12.7°C 84% 6.9 mph N11.1 kmh N 12.5 mph20.1 kmh 30.21 in1023.0 mb 0.00 in0.0 mm 0.00 in0.0 mm 0.00 in0.0 mm
03:02 AM 59.7°F15.4°C 54.9°F12.7°C 84% 6.5 mph NW10.5 kmh NW 12.5 mph20.1 kmh 30.22 in1023.4 mb 0.00 in0.0 mm 0.00 in0.0 mm 0.00 in0.0 mm
02:47 AM 59.9°F15.5°C 54.7°F12.6°C 83% 7.2 mph N11.6 kmh N 10.1 mph16.3 kmh 30.22 in1023.4 mb 0.00 in0.0 mm 0.00 in0.0 mm 0.00 in0.0 mm
02:32 AM 59.7°F15.4°C 54.5°F12.5°C 83% 5.4 mph N8.7 kmh N 12.5 mph20.1 kmh 30.22 in1023.4 mb 0.00 in0.0 mm 0.00 in0.0 mm 0.00 in0.0 mm
02:17 AM 59.7°F15.4°C 54.5°F12.5°C 83% 7.8 mph N12.6 kmh N 10.1 mph16.3 kmh 30.23 in1023.7 mb 0.00 in0.0 mm 0.00 in0.0 mm 0.00 in0.0 mm
02:02 AM 59.7°F15.4°C 54.5°F12.5°C 83% 7.6 mph NNW12.2 kmh NNW 10.1 mph16.3 kmh 30.24 in1024.0 mb 0.00 in0.0 mm 0.00 in0.0 mm 0.00 in0.0 mm
01:47 AM 59.5°F15.3°C 54.3°F12.4°C 83% 8.1 mph NNW13.0 kmh NNW 10.1 mph16.3 kmh 30.24 in1024.0 mb 0.00 in0.0 mm 0.00 in0.0 mm 0.00 in0.0 mm
01:32 AM 59.5°F15.3°C 55.0°F12.8°C 85% 4.7 mph N7.6 kmh N 10.1 mph16.3 kmh 30.25 in1024.4 mb 0.00 in0.0 mm 0.00 in0.0 mm 0.00 in0.0 mm
01:17 AM 59.7°F15.4°C 55.6°F13.1°C 86% 5.4 mph NNW8.7 kmh NNW 10.1 mph16.3 kmh 30.25 in1024.4 mb 0.00 in0.0 mm 0.00 in0.0 mm 0.00 in0.0 mm
01:02 AM 60.1°F15.6°C 55.9°F13.3°C 86% 4.9 mph N7.9 kmh N 7.6 mph12.2 kmh 30.26 in1024.7 mb 0.00 in0.0 mm 0.00 in0.0 mm 0.00 in0.0 mm
12:47 AM 60.4°F15.8°C 56.5°F13.6°C 87% 5.4 mph NNW8.7 kmh NNW 7.6 mph12.2 kmh 30.27 in1025.1 mb 0.00 in0.0 mm 0.00 in0.0 mm 0.00 in0.0 mm
12:31 AM 61.0°F16.1°C 57.4°F14.1°C 88% 4.7 mph NNW7.6 kmh NNW 7.6 mph12.2 kmh 30.26 in1024.7 mb 0.00 in0.0 mm 0.00 in0.0 mm 0.00 in0.0 mm
12:16 AM 61.5°F16.4°C 57.6°F14.2°C 87% 3.4 mph NNW5.5 kmh NNW 4.9 mph7.9 kmh 30.27 in1025.1 mb 0.00 in0.0 mm 0.00 in0.0 mm 0.00 in0.0 mm
12:01 AM 61.9°F16.6°C 57.9°F14.4°C 87% 2.2 mph NNW3.5 kmh NNW 4.9 mph7.9 kmh 30.27 in1025.1 mb 0.00 in0.0 mm 0.00 in0.0 mm 0.00 in0.0 mm